sensor_id;sensor_type;location;lat;lon;timestamp;temperature;humidity
46055;DHT22;31788;6.954;-71.872;2023-03-03T00:01:28;28.10;90.60
46055;DHT22;31788;6.954;-71.872;2023-03-03T00:03:55;28.00;90.60
46055;DHT22;31788;6.954;-71.872;2023-03-03T00:06:22;28.00;90.70
46055;DHT22;31788;6.954;-71.872;2023-03-03T00:08:50;28.10;90.80
46055;DHT22;31788;6.954;-71.872;2023-03-03T00:11:17;28.10;90.60
46055;DHT22;31788;6.954;-71.872;2023-03-03T00:13:48;28.00;90.40
46055;DHT22;31788;6.954;-71.872;2023-03-03T00:16:38;28.00;90.40
46055;DHT22;31788;6.954;-71.872;2023-03-03T00:19:15;28.00;90.50
46055;DHT22;31788;6.954;-71.872;2023-03-03T00:21:45;28.00;90.50
46055;DHT22;31788;6.954;-71.872;2023-03-03T00:24:21;28.00;90.50
46055;DHT22;31788;6.954;-71.872;2023-03-03T00:26:55;28.00;90.50
46055;DHT22;31788;6.954;-71.872;2023-03-03T00:29:36;28.00;90.30
46055;DHT22;31788;6.954;-71.872;2023-03-03T00:34:42;28.00;90.30
46055;DHT22;31788;6.954;-71.872;2023-03-03T00:37:35;28.00;90.30
46055;DHT22;31788;6.954;-71.872;2023-03-03T00:42:40;28.00;90.10
46055;DHT22;31788;6.954;-71.872;2023-03-03T00:45:26;28.00;90.20
46055;DHT22;31788;6.954;-71.872;2023-03-03T00:47:53;28.00;90.20
46055;DHT22;31788;6.954;-71.872;2023-03-03T00:50:34;28.00;90.20
46055;DHT22;31788;6.954;-71.872;2023-03-03T00:53:05;28.00;90.10
46055;DHT22;31788;6.954;-71.872;2023-03-03T00:55:34;28.00;90.20
46055;DHT22;31788;6.954;-71.872;2023-03-03T00:58:00;28.00;90.10
46055;DHT22;31788;6.954;-71.872;2023-03-03T01:00:27;28.00;90.20
46055;DHT22;31788;6.954;-71.872;2023-03-03T01:02:55;28.00;90.10
46055;DHT22;31788;6.954;-71.872;2023-03-03T01:05:22;28.00;90.20
46055;DHT22;31788;6.954;-71.872;2023-03-03T01:07:48;28.00;90.10
46055;DHT22;31788;6.954;-71.872;2023-03-03T01:10:15;28.00;90.20
46055;DHT22;31788;6.954;-71.872;2023-03-03T01:12:42;28.00;90.00
46055;DHT22;31788;6.954;-71.872;2023-03-03T01:15:10;28.00;90.10
46055;DHT22;31788;6.954;-71.872;2023-03-03T01:17:38;28.00;90.00
46055;DHT22;31788;6.954;-71.872;2023-03-03T01:20:07;28.00;89.90
46055;DHT22;31788;6.954;-71.872;2023-03-03T01:22:34;28.00;90.10
46055;DHT22;31788;6.954;-71.872;2023-03-03T01:25:02;28.00;89.90
46055;DHT22;31788;6.954;-71.872;2023-03-03T01:27:30;28.00;90.10
46055;DHT22;31788;6.954;-71.872;2023-03-03T01:29:57;28.00;90.10
46055;DHT22;31788;6.954;-71.872;2023-03-03T01:32:26;28.00;90.20
46055;DHT22;31788;6.954;-71.872;2023-03-03T01:34:53;28.00;90.30
46055;DHT22;31788;6.954;-71.872;2023-03-03T01:50:14;27.90;89.30
46055;DHT22;31788;6.954;-71.872;2023-03-03T01:52:46;28.00;90.10
46055;DHT22;31788;6.954;-71.872;2023-03-03T01:55:21;28.00;90.00
46055;DHT22;31788;6.954;-71.872;2023-03-03T01:58:00;28.00;90.10
46055;DHT22;31788;6.954;-71.872;2023-03-03T02:00:31;27.90;89.90
46055;DHT22;31788;6.954;-71.872;2023-03-03T02:02:59;27.90;89.70
46055;DHT22;31788;6.954;-71.872;2023-03-03T02:05:26;27.90;89.70
46055;DHT22;31788;6.954;-71.872;2023-03-03T02:07:54;27.90;89.70
46055;DHT22;31788;6.954;-71.872;2023-03-03T02:10:21;27.90;89.80
46055;DHT22;31788;6.954;-71.872;2023-03-03T02:12:56;27.90;89.80
46055;DHT22;31788;6.954;-71.872;2023-03-03T02:15:33;27.90;89.50
46055;DHT22;31788;6.954;-71.872;2023-03-03T02:18:14;27.90;89.90
46055;DHT22;31788;6.954;-71.872;2023-03-03T02:21:02;27.90;90.00
46055;DHT22;31788;6.954;-71.872;2023-03-03T02:26:22;27.90;89.80
46055;DHT22;31788;6.954;-71.872;2023-03-03T02:28:49;27.90;90.00
46055;DHT22;31788;6.954;-71.872;2023-03-03T02:31:20;27.90;89.90
46055;DHT22;31788;6.954;-71.872;2023-03-03T02:33:49;27.90;90.00
46055;DHT22;31788;6.954;-71.872;2023-03-03T02:36:19;27.90;89.70
46055;DHT22;31788;6.954;-71.872;2023-03-03T02:39:05;27.90;89.80
46055;DHT22;31788;6.954;-71.872;2023-03-03T02:44:11;27.90;90.00
46055;DHT22;31788;6.954;-71.872;2023-03-03T02:46:41;27.90;90.00
46055;DHT22;31788;6.954;-71.872;2023-03-03T02:49:11;27.90;89.90
46055;DHT22;31788;6.954;-71.872;2023-03-03T02:51:38;27.90;89.80
46055;DHT22;31788;6.954;-71.872;2023-03-03T02:54:05;27.90;89.80
46055;DHT22;31788;6.954;-71.872;2023-03-03T02:56:33;27.90;89.70
46055;DHT22;31788;6.954;-71.872;2023-03-03T02:59:00;27.90;89.90
46055;DHT22;31788;6.954;-71.872;2023-03-03T03:01:27;27.90;90.00
46055;DHT22;31788;6.954;-71.872;2023-03-03T03:03:54;27.90;89.60
46055;DHT22;31788;6.954;-71.872;2023-03-03T03:06:21;27.90;89.70
46055;DHT22;31788;6.954;-71.872;2023-03-03T03:08:47;27.90;90.00
46055;DHT22;31788;6.954;-71.872;2023-03-03T03:11:14;27.90;89.90
46055;DHT22;31788;6.954;-71.872;2023-03-03T03:13:44;27.90;89.90
46055;DHT22;31788;6.954;-71.872;2023-03-03T03:16:11;27.90;89.70
46055;DHT22;31788;6.954;-71.872;2023-03-03T03:18:37;27.90;90.10
46055;DHT22;31788;6.954;-71.872;2023-03-03T03:21:12;27.90;89.90
46055;DHT22;31788;6.954;-71.872;2023-03-03T03:23:39;27.90;89.80
46055;DHT22;31788;6.954;-71.872;2023-03-03T03:26:06;27.90;90.00
46055;DHT22;31788;6.954;-71.872;2023-03-03T03:28:33;27.90;89.90
46055;DHT22;31788;6.954;-71.872;2023-03-03T03:31:00;27.90;90.00
46055;DHT22;31788;6.954;-71.872;2023-03-03T03:33:27;27.90;89.70
46055;DHT22;31788;6.954;-71.872;2023-03-03T03:35:54;27.90;90.00
46055;DHT22;31788;6.954;-71.872;2023-03-03T03:38:23;27.90;89.90
46055;DHT22;31788;6.954;-71.872;2023-03-03T03:40:52;27.90;90.00
46055;DHT22;31788;6.954;-71.872;2023-03-03T03:43:19;27.90;90.10
46055;DHT22;31788;6.954;-71.872;2023-03-03T03:45:46;27.90;90.00
46055;DHT22;31788;6.954;-71.872;2023-03-03T03:48:12;27.90;89.90
46055;DHT22;31788;6.954;-71.872;2023-03-03T03:50:41;27.90;89.80
46055;DHT22;31788;6.954;-71.872;2023-03-03T03:53:08;27.90;90.00
46055;DHT22;31788;6.954;-71.872;2023-03-03T03:55:34;27.90;89.70
46055;DHT22;31788;6.954;-71.872;2023-03-03T03:58:01;27.90;89.80
46055;DHT22;31788;6.954;-71.872;2023-03-03T04:00:28;27.90;90.20
46055;DHT22;31788;6.954;-71.872;2023-03-03T04:02:54;27.90;90.10
46055;DHT22;31788;6.954;-71.872;2023-03-03T04:05:21;27.80;90.00
46055;DHT22;31788;6.954;-71.872;2023-03-03T04:07:47;27.80;90.00
46055;DHT22;31788;6.954;-71.872;2023-03-03T04:10:14;27.80;90.00
46055;DHT22;31788;6.954;-71.872;2023-03-03T04:12:41;27.80;90.10
46055;DHT22;31788;6.954;-71.872;2023-03-03T04:15:12;27.80;90.20
46055;DHT22;31788;6.954;-71.872;2023-03-03T04:17:40;27.80;90.10
46055;DHT22;31788;6.954;-71.872;2023-03-03T04:20:12;27.80;90.10
46055;DHT22;31788;6.954;-71.872;2023-03-03T04:22:38;27.80;90.30
46055;DHT22;31788;6.954;-71.872;2023-03-03T04:25:06;27.70;90.20
46055;DHT22;31788;6.954;-71.872;2023-03-03T04:27:36;27.70;90.70
46055;DHT22;31788;6.954;-71.872;2023-03-03T04:30:04;27.70;90.30
46055;DHT22;31788;6.954;-71.872;2023-03-03T04:32:32;27.70;90.40
46055;DHT22;31788;6.954;-71.872;2023-03-03T04:34:59;27.70;90.50
46055;DHT22;31788;6.954;-71.872;2023-03-03T04:37:26;27.70;90.30
46055;DHT22;31788;6.954;-71.872;2023-03-03T04:39:52;27.60;90.40
46055;DHT22;31788;6.954;-71.872;2023-03-03T04:42:19;27.70;90.30
46055;DHT22;31788;6.954;-71.872;2023-03-03T04:44:46;27.70;90.30
46055;DHT22;31788;6.954;-71.872;2023-03-03T04:47:12;27.70;90.30
46055;DHT22;31788;6.954;-71.872;2023-03-03T04:49:39;27.60;90.40
46055;DHT22;31788;6.954;-71.872;2023-03-03T04:52:05;27.60;90.60
46055;DHT22;31788;6.954;-71.872;2023-03-03T04:54:32;27.60;90.50
46055;DHT22;31788;6.954;-71.872;2023-03-03T04:56:59;27.60;90.80
46055;DHT22;31788;6.954;-71.872;2023-03-03T04:59:25;27.60;90.80
46055;DHT22;31788;6.954;-71.872;2023-03-03T05:01:52;27.60;90.60
46055;DHT22;31788;6.954;-71.872;2023-03-03T05:04:18;27.50;90.60
46055;DHT22;31788;6.954;-71.872;2023-03-03T05:06:45;27.50;90.60
46055;DHT22;31788;6.954;-71.872;2023-03-03T05:09:11;27.50;90.80
46055;DHT22;31788;6.954;-71.872;2023-03-03T05:11:38;27.50;90.90
46055;DHT22;31788;6.954;-71.872;2023-03-03T05:14:04;27.50;90.80
46055;DHT22;31788;6.954;-71.872;2023-03-03T05:16:33;27.50;90.90
46055;DHT22;31788;6.954;-71.872;2023-03-03T05:18:59;27.50;90.80
46055;DHT22;31788;6.954;-71.872;2023-03-03T05:21:27;27.50;91.00
46055;DHT22;31788;6.954;-71.872;2023-03-03T05:23:54;27.40;90.80
46055;DHT22;31788;6.954;-71.872;2023-03-03T05:26:20;27.40;91.00
46055;DHT22;31788;6.954;-71.872;2023-03-03T05:28:47;27.40;90.80
46055;DHT22;31788;6.954;-71.872;2023-03-03T05:31:13;27.50;90.90
46055;DHT22;31788;6.954;-71.872;2023-03-03T05:33:40;27.50;91.00
46055;DHT22;31788;6.954;-71.872;2023-03-03T05:36:07;27.50;90.70
46055;DHT22;31788;6.954;-71.872;2023-03-03T05:38:33;27.50;90.70
46055;DHT22;31788;6.954;-71.872;2023-03-03T05:41:00;27.60;90.50
46055;DHT22;31788;6.954;-71.872;2023-03-03T05:43:27;27.60;90.40
46055;DHT22;31788;6.954;-71.872;2023-03-03T05:45:55;27.60;90.30
46055;DHT22;31788;6.954;-71.872;2023-03-03T05:48:22;27.60;90.20
46055;DHT22;31788;6.954;-71.872;2023-03-03T05:50:48;27.70;90.20
46055;DHT22;31788;6.954;-71.872;2023-03-03T05:53:16;27.70;90.10
46055;DHT22;31788;6.954;-71.872;2023-03-03T05:55:43;27.70;90.00
46055;DHT22;31788;6.954;-71.872;2023-03-03T05:58:09;27.70;90.00
46055;DHT22;31788;6.954;-71.872;2023-03-03T06:00:37;27.70;90.30
46055;DHT22;31788;6.954;-71.872;2023-03-03T06:03:03;27.70;90.20
46055;DHT22;31788;6.954;-71.872;2023-03-03T06:05:30;27.70;90.30
46055;DHT22;31788;6.954;-71.872;2023-03-03T06:07:57;27.70;90.20
46055;DHT22;31788;6.954;-71.872;2023-03-03T06:10:23;27.70;90.20
46055;DHT22;31788;6.954;-71.872;2023-03-03T06:12:50;27.70;90.20
46055;DHT22;31788;6.954;-71.872;2023-03-03T06:15:17;27.70;90.20
46055;DHT22;31788;6.954;-71.872;2023-03-03T06:17:43;27.70;90.30
46055;DHT22;31788;6.954;-71.872;2023-03-03T06:20:10;27.70;90.20
46055;DHT22;31788;6.954;-71.872;2023-03-03T06:22:37;27.70;90.20
46055;DHT22;31788;6.954;-71.872;2023-03-03T06:25:04;27.70;90.20
46055;DHT22;31788;6.954;-71.872;2023-03-03T06:27:30;27.70;90.30
46055;DHT22;31788;6.954;-71.872;2023-03-03T06:29:57;27.70;90.10
46055;DHT22;31788;6.954;-71.872;2023-03-03T06:32:24;27.70;90.20
46055;DHT22;31788;6.954;-71.872;2023-03-03T06:34:50;27.70;90.30
46055;DHT22;31788;6.954;-71.872;2023-03-03T06:37:17;27.70;90.40
46055;DHT22;31788;6.954;-71.872;2023-03-03T06:39:43;27.70;90.50
46055;DHT22;31788;6.954;-71.872;2023-03-03T06:42:10;27.70;90.70
46055;DHT22;31788;6.954;-71.872;2023-03-03T06:44:37;27.70;90.80
46055;DHT22;31788;6.954;-71.872;2023-03-03T06:47:03;27.70;90.80
46055;DHT22;31788;6.954;-71.872;2023-03-03T06:49:31;27.70;90.80
46055;DHT22;31788;6.954;-71.872;2023-03-03T06:52:00;27.60;90.80
46055;DHT22;31788;6.954;-71.872;2023-03-03T06:54:28;27.70;90.90
46055;DHT22;31788;6.954;-71.872;2023-03-03T06:56:58;27.60;90.70
46055;DHT22;31788;6.954;-71.872;2023-03-03T06:59:26;27.70;90.60
46055;DHT22;31788;6.954;-71.872;2023-03-03T07:01:53;27.60;90.70
46055;DHT22;31788;6.954;-71.872;2023-03-03T07:04:30;27.70;91.00
46055;DHT22;31788;6.954;-71.872;2023-03-03T07:07:15;27.60;91.00
46055;DHT22;31788;6.954;-71.872;2023-03-03T07:09:44;27.50;91.40
46055;DHT22;31788;6.954;-71.872;2023-03-03T07:12:15;27.40;91.60
46055;DHT22;31788;6.954;-71.872;2023-03-03T07:14:46;27.30;91.50
46055;DHT22;31788;6.954;-71.872;2023-03-03T07:17:20;27.30;91.70
46055;DHT22;31788;6.954;-71.872;2023-03-03T07:19:47;27.30;91.50
46055;DHT22;31788;6.954;-71.872;2023-03-03T07:22:16;27.30;91.40
46055;DHT22;31788;6.954;-71.872;2023-03-03T07:24:45;27.40;91.50
46055;DHT22;31788;6.954;-71.872;2023-03-03T07:27:24;27.40;91.50
46055;DHT22;31788;6.954;-71.872;2023-03-03T07:29:53;27.40;91.30
46055;DHT22;31788;6.954;-71.872;2023-03-03T07:34:54;27.50;91.20
46055;DHT22;31788;6.954;-71.872;2023-03-03T07:37:32;27.50;91.20
46055;DHT22;31788;6.954;-71.872;2023-03-03T07:40:01;27.50;91.10
46055;DHT22;31788;6.954;-71.872;2023-03-03T07:42:41;27.60;91.20
46055;DHT22;31788;6.954;-71.872;2023-03-03T07:45:26;27.60;91.30
46055;DHT22;31788;6.954;-71.872;2023-03-03T07:48:18;27.60;91.30
46055;DHT22;31788;6.954;-71.872;2023-03-03T07:50:49;27.60;91.10
46055;DHT22;31788;6.954;-71.872;2023-03-03T07:53:26;27.50;91.10
46055;DHT22;31788;6.954;-71.872;2023-03-03T07:55:54;27.60;91.20
46055;DHT22;31788;6.954;-71.872;2023-03-03T07:58:40;27.60;91.20
46055;DHT22;31788;6.954;-71.872;2023-03-03T08:01:42;27.60;91.40
46055;DHT22;31788;6.954;-71.872;2023-03-03T08:04:19;27.60;91.50
46055;DHT22;31788;6.954;-71.872;2023-03-03T08:14:37;27.40;91.80
46055;DHT22;31788;6.954;-71.872;2023-03-03T08:17:22;27.40;91.80
46055;DHT22;31788;6.954;-71.872;2023-03-03T08:19:50;27.40;91.70
46055;DHT22;31788;6.954;-71.872;2023-03-03T08:24:55;27.50;91.90
46055;DHT22;31788;6.954;-71.872;2023-03-03T08:27:21;27.40;92.10
46055;DHT22;31788;6.954;-71.872;2023-03-03T08:29:48;27.50;92.20
46055;DHT22;31788;6.954;-71.872;2023-03-03T08:32:15;27.40;92.20
46055;DHT22;31788;6.954;-71.872;2023-03-03T08:34:41;27.40;92.40
46055;DHT22;31788;6.954;-71.872;2023-03-03T08:37:09;27.40;92.20
46055;DHT22;31788;6.954;-71.872;2023-03-03T08:39:36;27.40;92.20
46055;DHT22;31788;6.954;-71.872;2023-03-03T08:42:02;27.40;92.40
46055;DHT22;31788;6.954;-71.872;2023-03-03T08:44:29;27.40;92.60
46055;DHT22;31788;6.954;-71.872;2023-03-03T08:46:55;27.40;92.80
46055;DHT22;31788;6.954;-71.872;2023-03-03T08:49:22;27.30;92.80
46055;DHT22;31788;6.954;-71.872;2023-03-03T08:51:49;27.30;93.10
46055;DHT22;31788;6.954;-71.872;2023-03-03T08:54:17;27.20;92.90
46055;DHT22;31788;6.954;-71.872;2023-03-03T08:56:44;27.20;92.90
46055;DHT22;31788;6.954;-71.872;2023-03-03T08:59:10;27.20;93.10
46055;DHT22;31788;6.954;-71.872;2023-03-03T09:01:38;27.20;93.20
46055;DHT22;31788;6.954;-71.872;2023-03-03T09:04:05;27.20;93.10
46055;DHT22;31788;6.954;-71.872;2023-03-03T09:06:31;27.20;93.00
46055;DHT22;31788;6.954;-71.872;2023-03-03T09:08:58;27.20;93.00
46055;DHT22;31788;6.954;-71.872;2023-03-03T09:11:27;27.20;93.40
46055;DHT22;31788;6.954;-71.872;2023-03-03T09:14:06;27.20;93.10
46055;DHT22;31788;6.954;-71.872;2023-03-03T09:16:37;27.20;93.30
46055;DHT22;31788;6.954;-71.872;2023-03-03T09:19:28;27.20;93.20
46055;DHT22;31788;6.954;-71.872;2023-03-03T09:24:42;27.20;93.10
46055;DHT22;31788;6.954;-71.872;2023-03-03T09:27:30;27.20;93.20
46055;DHT22;31788;6.954;-71.872;2023-03-03T09:30:08;27.20;93.00
46055;DHT22;31788;6.954;-71.872;2023-03-03T09:32:37;27.20;93.00
46055;DHT22;31788;6.954;-71.872;2023-03-03T09:35:36;27.20;93.00
46055;DHT22;31788;6.954;-71.872;2023-03-03T09:38:30;27.20;93.10
46055;DHT22;31788;6.954;-71.872;2023-03-03T09:46:38;27.10;93.40
46055;DHT22;31788;6.954;-71.872;2023-03-03T09:52:00;27.10;93.70
46055;DHT22;31788;6.954;-71.872;2023-03-03T09:54:42;27.10;93.70
46055;DHT22;31788;6.954;-71.872;2023-03-03T10:03:09;27.10;93.80
46055;DHT22;31788;6.954;-71.872;2023-03-03T10:08:30;27.00;93.80
46055;DHT22;31788;6.954;-71.872;2023-03-03T10:11:16;27.00;93.80
46055;DHT22;31788;6.954;-71.872;2023-03-03T10:19:25;27.10;94.00
46055;DHT22;31788;6.954;-71.872;2023-03-03T10:27:45;26.90;94.10
46055;DHT22;31788;6.954;-71.872;2023-03-03T10:30:51;27.00;94.20
46055;DHT22;31788;6.954;-71.872;2023-03-03T10:33:38;27.00;94.20
46055;DHT22;31788;6.954;-71.872;2023-03-03T10:39:13;27.00;94.30
46055;DHT22;31788;6.954;-71.872;2023-03-03T10:41:54;27.10;94.10
46055;DHT22;31788;6.954;-71.872;2023-03-03T10:55:20;27.00;94.10
46055;DHT22;31788;6.954;-71.872;2023-03-03T11:14:46;27.00;94.30
46055;DHT22;31788;6.954;-71.872;2023-03-03T11:22:53;27.00;94.30
46055;DHT22;31788;6.954;-71.872;2023-03-03T11:25:31;27.00;94.30
46055;DHT22;31788;6.954;-71.872;2023-03-03T11:28:23;27.00;94.40
46055;DHT22;31788;6.954;-71.872;2023-03-03T11:31:06;27.00;94.20
46055;DHT22;31788;6.954;-71.872;2023-03-03T11:33:52;27.00;94.30
46055;DHT22;31788;6.954;-71.872;2023-03-03T11:36:44;27.00;94.30
46055;DHT22;31788;6.954;-71.872;2023-03-03T11:39:21;27.00;94.40
46055;DHT22;31788;6.954;-71.872;2023-03-03T11:44:40;27.10;94.50
46055;DHT22;31788;6.954;-71.872;2023-03-03T11:47:45;27.10;94.60
46055;DHT22;31788;6.954;-71.872;2023-03-03T11:50:27;27.10;94.70
46055;DHT22;31788;6.954;-71.872;2023-03-03T11:55:48;27.10;95.10
46055;DHT22;31788;6.954;-71.872;2023-03-03T11:58:52;27.10;95.30
46055;DHT22;31788;6.954;-71.872;2023-03-03T12:01:30;27.10;95.50
46055;DHT22;31788;6.954;-71.872;2023-03-03T12:04:06;27.00;95.60
46055;DHT22;31788;6.954;-71.872;2023-03-03T12:15:01;26.90;97.30
46055;DHT22;31788;6.954;-71.872;2023-03-03T12:23:11;26.70;97.80
46055;DHT22;31788;6.954;-71.872;2023-03-03T12:26:06;26.60;98.00
46055;DHT22;31788;6.954;-71.872;2023-03-03T12:28:40;26.50;98.20
46055;DHT22;31788;6.954;-71.872;2023-03-03T12:44:21;26.40;98.80
46055;DHT22;31788;6.954;-71.872;2023-03-03T13:04:27;26.30;98.90
46055;DHT22;31788;6.954;-71.872;2023-03-03T13:10:06;26.20;99.00
46055;DHT22;31788;6.954;-71.872;2023-03-03T13:23:50;26.20;99.60
46055;DHT22;31788;6.954;-71.872;2023-03-03T13:26:44;26.20;99.90
46055;DHT22;31788;6.954;-71.872;2023-03-03T13:32:22;26.30;99.80
46055;DHT22;31788;6.954;-71.872;2023-03-03T13:35:07;26.30;99.80
46055;DHT22;31788;6.954;-71.872;2023-03-03T13:48:05;26.40;99.40
46055;DHT22;31788;6.954;-71.872;2023-03-03T13:50:43;26.30;99.20
46055;DHT22;31788;6.954;-71.872;2023-03-03T13:59:44;26.30;99.30
46055;DHT22;31788;6.954;-71.872;2023-03-03T14:05:14;26.30;99.40
46055;DHT22;31788;6.954;-71.872;2023-03-03T14:07:55;26.40;99.60
46055;DHT22;31788;6.954;-71.872;2023-03-03T14:10:23;26.30;99.50
46055;DHT22;31788;6.954;-71.872;2023-03-03T14:13:26;26.40;99.60
46055;DHT22;31788;6.954;-71.872;2023-03-03T14:16:04;26.40;99.50
46055;DHT22;31788;6.954;-71.872;2023-03-03T14:18:53;26.40;99.50
46055;DHT22;31788;6.954;-71.872;2023-03-03T14:24:55;26.40;99.30
46055;DHT22;31788;6.954;-71.872;2023-03-03T14:27:26;26.40;99.10
46055;DHT22;31788;6.954;-71.872;2023-03-03T14:29:53;26.40;99.00
46055;DHT22;31788;6.954;-71.872;2023-03-03T14:32:23;26.40;98.80
46055;DHT22;31788;6.954;-71.872;2023-03-03T14:35:01;26.50;98.80
46055;DHT22;31788;6.954;-71.872;2023-03-03T14:37:44;26.50;98.70
46055;DHT22;31788;6.954;-71.872;2023-03-03T14:40:31;26.50;98.70
46055;DHT22;31788;6.954;-71.872;2023-03-03T14:43:00;26.50;98.80
46055;DHT22;31788;6.954;-71.872;2023-03-03T14:45:33;26.50;98.70
46055;DHT22;31788;6.954;-71.872;2023-03-03T14:48:10;26.50;98.60
46055;DHT22;31788;6.954;-71.872;2023-03-03T14:50:52;26.50;98.60
46055;DHT22;31788;6.954;-71.872;2023-03-03T14:53:21;26.50;98.60
46055;DHT22;31788;6.954;-71.872;2023-03-03T14:55:50;26.50;98.60
46055;DHT22;31788;6.954;-71.872;2023-03-03T15:03:58;26.60;98.50
46055;DHT22;31788;6.954;-71.872;2023-03-03T15:11:53;26.60;98.60
46055;DHT22;31788;6.954;-71.872;2023-03-03T15:14:34;26.70;98.50
46055;DHT22;31788;6.954;-71.872;2023-03-03T15:17:36;26.70;98.50
46055;DHT22;31788;6.954;-71.872;2023-03-03T15:20:34;26.70;98.50
46055;DHT22;31788;6.954;-71.872;2023-03-03T15:31:52;27.00;98.80
46055;DHT22;31788;6.954;-71.872;2023-03-03T15:40:38;27.10;98.70
46055;DHT22;31788;6.954;-71.872;2023-03-03T15:56:56;27.30;98.20
46055;DHT22;31788;6.954;-71.872;2023-03-03T16:02:20;27.30;98.30
46055;DHT22;31788;6.954;-71.872;2023-03-03T16:04:53;27.30;98.30
46055;DHT22;31788;6.954;-71.872;2023-03-03T16:10:31;27.40;98.20
46055;DHT22;31788;6.954;-71.872;2023-03-03T16:13:13;27.40;98.10
46055;DHT22;31788;6.954;-71.872;2023-03-03T16:16:00;27.50;98.20
46055;DHT22;31788;6.954;-71.872;2023-03-03T16:21:18;27.50;98.50
46055;DHT22;31788;6.954;-71.872;2023-03-03T16:29:32;27.60;98.10
46055;DHT22;31788;6.954;-71.872;2023-03-03T16:32:05;27.70;98.10
46055;DHT22;31788;6.954;-71.872;2023-03-03T16:34:54;27.70;97.90
46055;DHT22;31788;6.954;-71.872;2023-03-03T16:45:45;27.80;97.90
46055;DHT22;31788;6.954;-71.872;2023-03-03T16:48:32;27.80;97.90
46055;DHT22;31788;6.954;-71.872;2023-03-03T17:00:03;27.90;97.30
46055;DHT22;31788;6.954;-71.872;2023-03-03T17:14:32;28.00;97.40
46055;DHT22;31788;6.954;-71.872;2023-03-03T17:17:17;28.00;97.20
46055;DHT22;31788;6.954;-71.872;2023-03-03T17:22:32;28.00;97.00
46055;DHT22;31788;6.954;-71.872;2023-03-03T17:28:11;28.00;96.80
46055;DHT22;31788;6.954;-71.872;2023-03-03T17:33:59;28.00;96.60
46055;DHT22;31788;6.954;-71.872;2023-03-03T17:55:53;28.10;96.20
46055;DHT22;31788;6.954;-71.872;2023-03-03T17:58:54;28.10;96.10
46055;DHT22;31788;6.954;-71.872;2023-03-03T18:05:12;28.20;96.10
46055;DHT22;31788;6.954;-71.872;2023-03-03T18:10:05;28.20;95.80
46055;DHT22;31788;6.954;-71.872;2023-03-03T18:23:36;28.30;95.70
46055;DHT22;31788;6.954;-71.872;2023-03-03T18:26:35;28.30;95.20
46055;DHT22;31788;6.954;-71.872;2023-03-03T18:29:20;28.30;95.00
46055;DHT22;31788;6.954;-71.872;2023-03-03T18:34:41;28.40;95.10
46055;DHT22;31788;6.954;-71.872;2023-03-03T18:40:33;28.40;94.60
46055;DHT22;31788;6.954;-71.872;2023-03-03T18:49:04;28.50;94.30
46055;DHT22;31788;6.954;-71.872;2023-03-03T19:02:23;28.60;93.90
46055;DHT22;31788;6.954;-71.872;2023-03-03T19:12:57;28.90;93.90
46055;DHT22;31788;6.954;-71.872;2023-03-03T19:21:00;29.10;93.90
46055;DHT22;31788;6.954;-71.872;2023-03-03T19:23:48;29.10;93.60
46055;DHT22;31788;6.954;-71.872;2023-03-03T19:31:57;29.20;93.40
46055;DHT22;31788;6.954;-71.872;2023-03-03T19:45:30;29.30;93.10
46055;DHT22;31788;6.954;-71.872;2023-03-03T19:48:11;29.30;93.20
46055;DHT22;31788;6.954;-71.872;2023-03-03T19:53:49;29.30;93.30
46055;DHT22;31788;6.954;-71.872;2023-03-03T19:57:09;29.30;93.10
46055;DHT22;31788;6.954;-71.872;2023-03-03T20:07:37;29.40;92.90
46055;DHT22;31788;6.954;-71.872;2023-03-03T20:13:16;29.40;92.50
46055;DHT22;31788;6.954;-71.872;2023-03-03T20:16:13;29.40;92.40
46055;DHT22;31788;6.954;-71.872;2023-03-03T20:27:46;29.50;92.20
46055;DHT22;31788;6.954;-71.872;2023-03-03T20:30:32;29.50;92.30
46055;DHT22;31788;6.954;-71.872;2023-03-03T20:38:28;29.50;92.00
46055;DHT22;31788;6.954;-71.872;2023-03-03T20:41:11;29.50;91.90
46055;DHT22;31788;6.954;-71.872;2023-03-03T20:43:58;29.50;91.60
46055;DHT22;31788;6.954;-71.872;2023-03-03T20:50:01;29.50;91.80
46055;DHT22;31788;6.954;-71.872;2023-03-03T20:58:36;29.40;92.10
46055;DHT22;31788;6.954;-71.872;2023-03-03T21:01:15;29.40;92.10
46055;DHT22;31788;6.954;-71.872;2023-03-03T21:03:44;29.30;92.00
46055;DHT22;31788;6.954;-71.872;2023-03-03T21:06:16;29.30;92.10
46055;DHT22;31788;6.954;-71.872;2023-03-03T21:08:49;29.30;92.20
46055;DHT22;31788;6.954;-71.872;2023-03-03T21:11:40;29.30;92.20
46055;DHT22;31788;6.954;-71.872;2023-03-03T21:14:25;29.30;92.10
46055;DHT22;31788;6.954;-71.872;2023-03-03T21:16:55;29.30;92.20
46055;DHT22;31788;6.954;-71.872;2023-03-03T21:19:33;29.30;92.10
46055;DHT22;31788;6.954;-71.872;2023-03-03T21:22:09;29.30;92.20
46055;DHT22;31788;6.954;-71.872;2023-03-03T21:24:51;29.30;92.00
46055;DHT22;31788;6.954;-71.872;2023-03-03T21:27:31;29.40;91.90
46055;DHT22;31788;6.954;-71.872;2023-03-03T21:30:09;29.30;91.90
46055;DHT22;31788;6.954;-71.872;2023-03-03T21:35:11;29.40;92.00
46055;DHT22;31788;6.954;-71.872;2023-03-03T21:37:44;29.30;91.80
46055;DHT22;31788;6.954;-71.872;2023-03-03T21:40:21;29.40;91.60
46055;DHT22;31788;6.954;-71.872;2023-03-03T21:42:52;29.30;91.60
46055;DHT22;31788;6.954;-71.872;2023-03-03T21:45:19;29.40;91.70
46055;DHT22;31788;6.954;-71.872;2023-03-03T21:47:49;29.30;91.80
46055;DHT22;31788;6.954;-71.872;2023-03-03T21:50:17;29.40;91.90
46055;DHT22;31788;6.954;-71.872;2023-03-03T21:52:47;29.40;92.00
46055;DHT22;31788;6.954;-71.872;2023-03-03T21:55:14;29.30;92.00
46055;DHT22;31788;6.954;-71.872;2023-03-03T21:57:41;29.40;92.20
46055;DHT22;31788;6.954;-71.872;2023-03-03T22:00:08;29.30;92.10
46055;DHT22;31788;6.954;-71.872;2023-03-03T22:02:35;29.30;92.20
46055;DHT22;31788;6.954;-71.872;2023-03-03T22:05:02;29.30;91.90
46055;DHT22;31788;6.954;-71.872;2023-03-03T22:07:32;29.30;92.10
46055;DHT22;31788;6.954;-71.872;2023-03-03T22:09:58;29.30;92.20
46055;DHT22;31788;6.954;-71.872;2023-03-03T22:12:25;29.30;92.20
46055;DHT22;31788;6.954;-71.872;2023-03-03T22:14:52;29.30;92.30
46055;DHT22;31788;6.954;-71.872;2023-03-03T22:17:18;29.30;92.40
46055;DHT22;31788;6.954;-71.872;2023-03-03T22:19:45;29.20;92.40
46055;DHT22;31788;6.954;-71.872;2023-03-03T22:22:11;29.30;92.50
46055;DHT22;31788;6.954;-71.872;2023-03-03T22:24:38;29.20;92.60
46055;DHT22;31788;6.954;-71.872;2023-03-03T22:27:05;29.20;92.60
46055;DHT22;31788;6.954;-71.872;2023-03-03T22:29:33;29.20;93.00
46055;DHT22;31788;6.954;-71.872;2023-03-03T22:32:00;29.20;92.90
46055;DHT22;31788;6.954;-71.872;2023-03-03T22:34:27;29.20;93.00
46055;DHT22;31788;6.954;-71.872;2023-03-03T22:36:53;29.20;93.00
46055;DHT22;31788;6.954;-71.872;2023-03-03T22:39:21;29.20;92.90
46055;DHT22;31788;6.954;-71.872;2023-03-03T22:41:47;29.20;93.00
46055;DHT22;31788;6.954;-71.872;2023-03-03T22:44:14;29.10;93.00
46055;DHT22;31788;6.954;-71.872;2023-03-03T22:46:41;29.10;93.00